Time;durP1;ratioP1;P1;durP2;ratioP2;P2;SDS_P1;SDS_P2;PMS_P1;PMS_P2;Temp;Humidity;BMP_temperature;BMP_pressure;BME280_temperature;BME280_humidity;BME280_pressure;Samples;Min_cycle;Max_cycle;Signal;HPM_P1;HPM_P2
2023/01/17 00:01:12;;;;;;;2.03;1.13;;;;;;;2.90;100.00;97656.16;5018690;28;20251;-47
2023/01/17 00:09:51;;;;;;;2.42;1.55;;;;;;;2.89;100.00;97650.03;5018461;28;20175;-46
2023/01/17 00:11:56;;;;;;;1.70;1.25;;;;;;;2.85;100.00;97643.22;5020441;28;20576;-46
2023/01/17 00:14:22;;;;;;;1.98;1.40;;;;;;;2.77;100.00;97644.59;5015943;28;20197;-47
2023/01/17 00:16:47;;;;;;;1.85;1.08;;;;;;;2.78;100.00;97643.66;5022538;28;20211;-46
2023/01/17 01:33:49;;;;;;;1.83;1.45;;;;;;;2.31;100.00;97591.75;5022124;28;20181;-48
2023/01/17 01:36:15;;;;;;;2.60;1.58;;;;;;;2.27;100.00;97591.03;5020338;28;20686;-47
2023/01/17 01:38:40;;;;;;;1.65;1.40;;;;;;;2.29;100.00;97586.53;5028782;28;20172;-48
2023/01/17 01:41:06;;;;;;;1.80;1.52;;;;;;;2.31;100.00;97582.00;5022203;28;20180;-48
2023/01/17 01:43:48;;;;;;;3.55;1.50;;;;;;;2.31;100.00;97581.16;5015078;28;20742;-47
2023/01/17 01:46:38;;;;;;;4.18;1.30;;;;;;;2.37;100.00;97586.09;5014036;28;20212;-49
2023/01/17 01:49:16;;;;;;;2.10;1.60;;;;;;;2.32;100.00;97588.13;5019140;28;20250;-47
2023/01/17 01:51:50;;;;;;;2.65;1.50;;;;;;;2.32;100.00;97577.56;5014315;28;20272;-48
2023/01/17 01:54:21;;;;;;;3.55;1.65;;;;;;;2.25;100.00;97577.06;5019395;28;20233;-47
2023/01/17 01:56:48;;;;;;;2.47;1.67;;;;;;;2.27;100.00;97575.19;5023291;28;20211;-47
2023/01/17 01:59:16;;;;;;;3.67;1.67;;;;;;;2.24;100.00;97563.03;5023716;28;20204;-49
2023/01/17 02:01:41;;;;;;;2.88;1.48;;;;;;;2.28;100.00;97563.72;5017459;28;20601;-48
2023/01/17 02:04:08;;;;;;;2.05;1.80;;;;;;;2.26;100.00;97562.94;5018479;28;20192;-49
2023/01/17 02:06:38;;;;;;;1.63;1.50;;;;;;;2.30;100.00;97566.28;5023431;28;20200;-48
2023/01/17 02:09:10;;;;;;;1.70;1.40;;;;;;;2.24;100.00;97554.25;5017808;28;20295;-47
2023/01/17 02:11:37;;;;;;;3.25;1.85;;;;;;;2.16;100.00;97567.88;5014174;28;20196;-48
2023/01/17 02:14:04;;;;;;;2.30;1.45;;;;;;;2.17;100.00;97561.69;5018817;28;20216;-48
2023/01/17 02:16:46;;;;;;;2.90;1.67;;;;;;;2.17;100.00;97552.91;5015944;28;20204;-47
2023/01/17 02:19:47;;;;;;;4.53;1.95;;;;;;;2.12;100.00;97554.94;5024078;28;20176;-48
2023/01/17 02:22:46;;;;;;;2.67;1.67;;;;;;;2.09;100.00;97555.97;5018141;28;20262;-48
2023/01/17 02:25:29;;;;;;;2.17;1.70;;;;;;;2.05;100.00;97551.81;5019715;28;20195;-48
2023/01/17 02:27:54;;;;;;;2.28;1.50;;;;;;;2.02;100.00;97542.28;5019520;28;20522;-48
2023/01/17 02:30:32;;;;;;;2.42;1.67;;;;;;;2.04;100.00;97550.13;5019375;28;20200;-46
2023/01/17 02:33:23;;;;;;;1.90;1.80;;;;;;;2.00;100.00;97546.78;5012610;28;20188;-47
2023/01/17 02:36:03;;;;;;;2.75;1.77;;;;;;;1.98;100.00;97542.53;5026805;28;20579;-48
2023/01/17 02:38:58;;;;;;;3.13;1.65;;;;;;;1.99;100.00;97545.09;5018892;28;20222;-48
2023/01/17 02:41:31;;;;;;;2.83;2.00;;;;;;;1.97;100.00;97546.97;5021389;28;20222;-49
2023/01/17 02:43:57;;;;;;;2.58;1.85;;;;;;;2.00;100.00;97545.94;5017691;28;20246;-49
2023/01/17 02:46:23;;;;;;;4.97;2.40;;;;;;;1.97;100.00;97546.97;5018926;28;20629;-42
2023/01/17 02:48:50;;;;;;;2.20;1.65;;;;;;;2.00;100.00;97553.84;5022544;28;20192;-43
2023/01/17 02:51:37;;;;;;;3.42;1.80;;;;;;;1.94;100.00;97549.75;5026922;28;20315;-43
2023/01/17 02:54:15;;;;;;;4.30;2.42;;;;;;;1.90;100.00;97542.94;5016024;28;20661;-43
2023/01/17 02:57:04;;;;;;;1.98;1.70;;;;;;;1.98;100.00;97553.09;5017973;28;20255;-43
2023/01/17 02:59:51;;;;;;;2.58;2.17;;;;;;;2.02;100.00;97541.44;5021753;28;20201;-43
2023/01/17 03:02:45;;;;;;;2.05;1.80;;;;;;;1.97;100.00;97543.47;5014004;28;20271;-45
2023/01/17 03:05:27;;;;;;;2.58;2.10;;;;;;;1.87;100.00;97545.78;5014613;28;20243;-46
2023/01/17 03:07:54;;;;;;;2.33;2.03;;;;;;;1.81;100.00;97538.19;5026071;28;20175;-48
2023/01/17 03:10:20;;;;;;;4.00;2.00;;;;;;;1.74;100.00;97544.75;5016909;28;20659;-48
2023/01/17 03:12:46;;;;;;;3.35;2.03;;;;;;;1.64;100.00;97537.34;5022065;28;20766;-45
2023/01/17 03:15:14;;;;;;;3.28;2.20;;;;;;;1.60;100.00;97532.34;5014866;28;20316;-47
2023/01/17 03:17:45;;;;;;;2.60;1.75;;;;;;;1.55;100.00;97534.34;5015048;28;20652;-52
2023/01/17 03:20:11;;;;;;;5.90;2.00;;;;;;;1.55;100.00;97534.34;5017520;28;20331;-44
2023/01/17 03:22:37;;;;;;;2.13;1.92;;;;;;;1.55;100.00;97531.72;5020425;28;20669;-44
2023/01/17 03:25:04;;;;;;;6.78;1.88;;;;;;;1.61;100.00;97541.94;5014230;28;20200;-45
2023/01/17 03:27:29;;;;;;;2.95;1.90;;;;;;;1.62;100.00;97536.59;5017054;28;20282;-44
2023/01/17 03:29:55;;;;;;;2.20;1.80;;;;;;;1.61;100.00;97540.13;5017758;28;20769;-45
2023/01/17 03:32:20;;;;;;;2.45;1.90;;;;;;;1.57;100.00;97535.97;5015222;28;20196;-45
2023/01/17 03:34:46;;;;;;;3.10;1.90;;;;;;;1.53;100.00;97538.84;5012577;28;20184;-49
2023/01/17 03:37:11;;;;;;;3.00;2.40;;;;;;;1.51;100.00;97533.69;5019024;28;20203;-45
2023/01/17 03:39:37;;;;;;;3.20;2.10;;;;;;;1.53;100.00;97536.22;5021837;28;20239;-45
2023/01/17 03:42:02;;;;;;;2.85;2.30;;;;;;;1.45;100.00;97536.66;5017853;28;20180;-49
2023/01/17 03:44:28;;;;;;;3.92;2.33;;;;;;;1.54;100.00;97541.41;5021783;28;20187;-44
2023/01/17 03:46:53;;;;;;;5.22;2.70;;;;;;;1.52;100.00;97545.09;5018538;28;20218;-45
2023/01/17 03:49:19;;;;;;;5.25;2.30;;;;;;;1.53;100.00;97537.09;5029304;28;20265;-45
2023/01/17 03:51:45;;;;;;;3.15;2.50;;;;;;;1.58;100.00;97545.59;5020205;28;20603;-48
2023/01/17 03:54:10;;;;;;;4.88;2.65;;;;;;;1.65;100.00;97554.03;5019647;28;20314;-44
2023/01/17 03:56:36;;;;;;;3.33;2.50;;;;;;;1.57;100.00;97551.78;5015896;28;20227;-46
2023/01/17 03:59:01;;;;;;;2.90;2.70;;;;;;;1.56;100.00;97554.53;5022834;28;20287;-47
2023/01/17 04:01:27;;;;;;;3.92;3.30;;;;;;;1.53;100.00;97544.13;5018442;28;20183;-51
2023/01/17 04:03:53;;;;;;;3.97;3.05;;;;;;;1.62;100.00;97536.59;5012114;28;20266;-45
2023/01/17 04:06:18;;;;;;;4.80;3.13;;;;;;;1.61;100.00;97532.22;5017013;28;20212;-44
2023/01/17 04:08:44;;;;;;;3.60;3.30;;;;;;;1.63;100.00;97540.91;5015802;28;20270;-45
2023/01/17 04:11:09;;;;;;;4.25;3.30;;;;;;;1.63;100.00;97533.00;5019095;28;20247;-51
2023/01/17 04:13:35;;;;;;;7.13;4.03;;;;;;;1.64;100.00;97537.34;5006834;28;20261;-45
2023/01/17 04:16:00;;;;;;;3.90;3.05;;;;;;;1.62;100.00;97530.47;5031841;28;20200;-43
2023/01/17 04:18:26;;;;;;;4.18;3.78;;;;;;;1.65;100.00;97535.56;5020356;28;20225;-47
2023/01/17 04:20:51;;;;;;;4.72;3.60;;;;;;;1.68;100.00;97535.38;5021702;28;20199;-49
2023/01/17 04:23:17;;;;;;;5.18;4.07;;;;;;;1.64;100.00;97531.22;5015949;28;20311;-46
2023/01/17 04:25:43;;;;;;;4.10;3.65;;;;;;;1.64;100.00;97533.88;5016250;28;20212;-44
2023/01/17 04:28:09;;;;;;;4.70;3.83;;;;;;;1.62;100.00;97522.53;5028640;28;20591;-46
2023/01/17 04:30:34;;;;;;;4.90;4.40;;;;;;;1.70;100.00;97520.31;5017153;28;20272;-48
2023/01/17 04:33:00;;;;;;;4.68;4.25;;;;;;;1.66;100.00;97516.13;5022413;28;20251;-42
2023/01/17 04:35:28;;;;;;;5.10;4.60;;;;;;;1.69;100.00;97528.34;5025725;28;20872;-43
2023/01/17 04:37:54;;;;;;;5.20;4.45;;;;;;;1.77;100.00;97521.69;5030550;28;20224;-43
2023/01/17 04:40:19;;;;;;;4.85;4.43;;;;;;;1.75;100.00;97520.06;5021480;28;20184;-44
2023/01/17 04:42:45;;;;;;;4.95;4.50;;;;;;;1.75;100.00;97517.41;5024992;28;20187;-47
2023/01/17 04:45:12;;;;;;;4.90;4.32;;;;;;;1.81;100.00;97522.34;5025146;28;20212;-44
2023/01/17 04:47:38;;;;;;;5.10;4.50;;;;;;;1.82;100.00;97516.16;5024572;28;20280;-45
2023/01/17 04:50:04;;;;;;;5.45;4.60;;;;;;;1.88;100.00;97513.19;5020471;28;20275;-47
2023/01/17 04:52:29;;;;;;;5.72;5.20;;;;;;;1.85;100.00;97519.44;5026700;28;20258;-47
2023/01/17 04:54:54;;;;;;;5.30;4.80;;;;;;;1.75;100.00;97514.78;5025667;28;20185;-45
2023/01/17 04:57:20;;;;;;;5.63;4.90;;;;;;;1.81;100.00;97525.00;5018177;28;20284;-43
2023/01/17 04:59:46;;;;;;;5.57;5.07;;;;;;;1.88;100.00;97521.09;5032404;28;20215;-45
2023/01/17 05:02:12;;;;;;;5.95;5.30;;;;;;;1.95;100.00;97519.81;5024524;28;20184;-48
2023/01/17 05:04:38;;;;;;;5.72;5.13;;;;;;;1.95;100.00;97521.59;5019628;28;20227;-45
2023/01/17 05:07:04;;;;;;;5.97;5.20;;;;;;;2.00;100.00;97511.63;5018747;28;20201;-48
2023/01/17 05:09:30;;;;;;;6.55;5.85;;;;;;;2.00;100.00;97522.19;5022192;28;20177;-50
2023/01/17 05:11:55;;;;;;;6.68;6.05;;;;;;;1.92;100.00;97517.31;5018178;28;20330;-44
2023/01/17 05:14:25;;;;;;;6.30;5.70;;;;;;;1.87;100.00;97529.94;5017088;28;20180;-45
2023/01/17 05:16:57;;;;;;;7.07;6.38;;;;;;;1.89;100.00;97519.28;5019066;28;20628;-48
2023/01/17 05:19:24;;;;;;;8.07;6.28;;;;;;;1.88;100.00;97539.56;5016284;28;20272;-47
2023/01/17 05:21:50;;;;;;;7.35;6.25;;;;;;;1.90;100.00;97521.81;5028416;28;20265;-47
2023/01/17 05:24:16;;;;;;;7.50;6.55;;;;;;;1.87;100.00;97529.94;5019942;28;20183;-45
2023/01/17 05:26:42;;;;;;;7.07;6.38;;;;;;;1.84;100.00;97535.41;5028725;28;20199;-46
2023/01/17 05:29:08;;;;;;;7.10;6.40;;;;;;;1.88;100.00;97538.69;5019518;28;20278;-44
2023/01/17 05:31:34;;;;;;;7.93;6.53;;;;;;;1.94;100.00;97546.28;5021550;28;20223;-45
2023/01/17 05:33:59;;;;;;;8.73;7.82;;;;;;;1.94;100.00;97541.84;5025515;28;20184;-45
2023/01/17 05:36:25;;;;;;;8.30;7.45;;;;;;;1.94;100.00;97541.84;5021164;28;20633;-45
2023/01/17 05:38:50;;;;;;;8.40;7.63;;;;;;;1.90;100.00;97544.75;5035619;28;20263;-46
2023/01/17 05:41:16;;;;;;;11.10;8.75;;;;;;;1.91;100.00;97542.03;5022533;28;20180;-47
2023/01/17 05:43:41;;;;;;;10.48;9.32;;;;;;;1.87;100.00;97551.06;5018970;28;20225;-46
2023/01/17 05:46:07;;;;;;;10.85;9.75;;;;;;;1.89;100.00;97557.09;5018838;28;20226;-46
2023/01/17 05:48:32;;;;;;;10.82;9.73;;;;;;;1.91;100.00;97552.59;5029355;28;20662;-44
2023/01/17 05:50:58;;;;;;;13.57;9.95;;;;;;;1.91;100.00;97555.22;5021608;28;20243;-46
2023/01/17 05:53:23;;;;;;;14.73;11.43;;;;;;;1.94;100.00;97564.75;5021869;28;20180;-47
2023/01/17 05:55:49;;;;;;;12.00;10.70;;;;;;;1.95;100.00;97562.03;5018074;28;20226;-47
2023/01/17 05:58:17;;;;;;;13.45;12.00;;;;;;;2.02;100.00;97555.47;5027695;28;20621;-44
2023/01/17 06:00:43;;;;;;;13.90;11.55;;;;;;;2.08;100.00;97559.56;5020278;28;20606;-45
2023/01/17 06:03:10;;;;;;;13.77;12.00;;;;;;;2.12;100.00;97554.94;5019493;28;20185;-45
2023/01/17 06:05:36;;;;;;;15.65;13.38;;;;;;;2.08;100.00;97559.56;5026328;28;20686;-50
2023/01/17 06:08:02;;;;;;;15.13;13.10;;;;;;;2.16;100.00;97559.13;5018201;28;20181;-44
2023/01/17 06:10:28;;;;;;;15.60;13.82;;;;;;;2.19;100.00;97553.69;5021701;28;20199;-50
2023/01/17 06:13:08;;;;;;;19.55;16.63;;;;;;;2.15;100.00;97565.34;5021546;28;20201;-49
2023/01/17 06:15:35;;;;;;;19.08;16.27;;;;;;;2.16;100.00;97565.25;5019170;28;20227;-47
2023/01/17 06:18:11;;;;;;;20.23;16.33;;;;;;;2.18;100.00;97559.88;5018606;28;20556;-49
2023/01/17 06:20:38;;;;;;;19.67;16.48;;;;;;;2.20;100.00;97560.66;5017703;28;20185;-44
2023/01/17 06:23:06;;;;;;;23.25;18.38;;;;;;;2.22;100.00;97564.91;5016646;28;20204;-43
2023/01/17 06:25:37;;;;;;;27.63;20.50;;;;;;;2.25;100.00;97555.94;5019647;28;20325;-43
2023/01/17 06:28:03;;;;;;;25.27;19.58;;;;;;;2.26;100.00;97561.16;5018929;28;20188;-49
2023/01/17 06:30:29;;;;;;;27.55;21.58;;;;;;;2.28;100.00;97571.63;5011135;28;20184;-48
2023/01/17 06:32:54;;;;;;;29.42;22.85;;;;;;;2.28;100.00;97561.06;5022497;28;20204;-46
2023/01/17 06:35:21;;;;;;;30.17;22.48;;;;;;;2.31;100.00;97565.31;5021006;28;20220;-47
2023/01/17 06:37:54;;;;;;;28.83;22.45;;;;;;;2.33;100.00;97579.28;5023953;28;20195;-47
2023/01/17 06:40:23;;;;;;;30.13;22.45;;;;;;;2.37;100.00;97572.91;5020504;28;20543;-48
2023/01/17 06:42:49;;;;;;;35.28;24.35;;;;;;;2.40;100.00;97578.84;5019901;28;20191;-47
2023/01/17 06:45:15;;;;;;;31.38;22.80;;;;;;;2.46;100.00;97575.84;5025174;28;20195;-44
2023/01/17 06:47:41;;;;;;;27.95;21.60;;;;;;;2.46;100.00;97588.22;5016130;28;20223;-43
2023/01/17 06:50:09;;;;;;;28.83;22.88;;;;;;;2.48;100.00;97588.97;5019079;28;21052;-44
2023/01/17 06:52:35;;;;;;;26.30;19.33;;;;;;;2.43;100.00;97591.91;5016621;28;20307;-44
2023/01/17 06:55:00;;;;;;;22.52;16.77;;;;;;;2.37;100.00;97594.88;5022050;28;20254;-44
2023/01/17 06:57:26;;;;;;;18.63;14.23;;;;;;;2.34;100.00;97589.78;5020539;28;20192;-50
2023/01/17 06:59:51;;;;;;;15.18;12.55;;;;;;;2.31;100.00;97595.22;5018101;28;20200;-48
2023/01/17 07:02:17;;;;;;;13.75;11.05;;;;;;;2.32;100.00;97596.94;5018035;28;20317;-44
2023/01/17 07:04:42;;;;;;;12.85;10.43;;;;;;;2.19;100.00;97603.84;5020126;28;20188;-45
2023/01/17 07:07:08;;;;;;;11.90;9.75;;;;;;;2.19;100.00;97609.13;5018657;28;20504;-50
2023/01/17 07:09:33;;;;;;;10.55;9.13;;;;;;;2.20;100.00;97619.59;5022803;28;20188;-43
2023/01/17 07:12:00;;;;;;;6.68;6.07;;;;;;;2.12;100.00;97628.88;5018836;28;20198;-43
2023/01/17 07:14:29;;;;;;;5.60;5.10;;;;;;;2.03;100.00;97615.28;5023139;28;20176;-48
2023/01/17 07:16:55;;;;;;;6.60;5.82;;;;;;;2.00;100.00;97626.00;5018392;28;20580;-46
2023/01/17 07:19:22;;;;;;;3.50;3.20;;;;;;;1.99;100.00;97631.34;5016411;28;20177;-46
2023/01/17 07:21:54;;;;;;;3.00;2.80;;;;;;;1.95;100.00;97637.75;5015919;28;20183;-49
2023/01/17 07:24:20;;;;;;;3.10;2.80;;;;;;;1.83;100.00;97644.53;5020409;28;20231;-44
2023/01/17 07:26:50;;;;;;;2.67;2.47;;;;;;;1.84;100.00;97647.09;5024860;28;20208;-44
2023/01/17 07:29:16;;;;;;;1.90;1.80;;;;;;;1.87;100.00;97658.44;5021770;28;20187;-44
2023/01/17 07:31:41;;;;;;;3.10;0.90;;;;;;;1.79;100.00;97658.84;5017860;28;20683;-44
2023/01/17 07:34:07;;;;;;;2.92;1.73;;;;;;;1.76;100.00;97672.19;5013154;28;20184;-45
2023/01/17 07:36:33;;;;;;;0.50;0.50;;;;;;;1.73;100.00;97669.72;5017647;28;20384;-44
2023/01/17 07:38:58;;;;;;;1.80;0.68;;;;;;;1.74;100.00;97671.44;5024659;28;20186;-46
2023/01/17 07:41:24;;;;;;;1.20;0.52;;;;;;;1.72;100.00;97681.22;5017336;28;20187;-46
2023/01/17 07:43:50;;;;;;;5.38;0.68;;;;;;;1.83;100.00;97679.69;5027084;28;20184;-46
2023/01/17 07:46:16;;;;;;;0.85;0.30;;;;;;;1.71;100.00;97693.56;5022859;28;20215;-43
2023/01/17 07:48:41;;;;;;;0.20;0.20;;;;;;;1.61;100.00;97697.59;5025827;28;20192;-47
2023/01/17 07:51:08;;;;;;;1.27;0.17;;;;;;;1.44;100.00;97694.06;5017269;28;20224;-47
2023/01/17 07:53:34;;;;;;;0.20;0.20;;;;;;;1.39;100.00;97697.88;5019228;28;20237;-45
2023/01/17 07:56:03;;;;;;;0.20;0.20;;;;;;;1.22;100.00;97704.88;5023530;28;20212;-51
2023/01/17 07:58:29;;;;;;;3.65;0.40;;;;;;;1.20;100.00;97706.75;5023862;28;20180;-48
2023/01/17 08:01:10;;;;;;;1.00;0.55;;;;;;;1.16;100.00;97713.09;5015150;28;20223;-43
2023/01/17 08:03:38;;;;;;;1.05;0.50;;;;;;;1.24;100.00;97713.53;5019558;28;20179;-43
2023/01/17 08:06:06;;;;;;;1.95;0.40;;;;;;;1.21;100.00;97726.03;5020657;28;20200;-43
2023/01/17 08:08:32;;;;;;;0.60;0.43;;;;;;;1.23;100.00;97738.22;5026429;28;20330;-45
2023/01/17 08:10:57;;;;;;;1.42;0.38;;;;;;;1.25;100.00;97740.78;5019826;28;20282;-47
2023/01/17 08:13:23;;;;;;;1.27;0.30;;;;;;;1.31;100.00;97752.78;5029558;28;20572;-45
2023/01/17 08:15:50;;;;;;;3.50;0.38;;;;;;;1.31;100.00;97755.44;5018681;28;20294;-49
2023/01/17 08:18:17;;;;;;;1.58;0.40;;;;;;;1.36;100.00;97749.00;5022777;28;20212;-48
2023/01/17 08:20:43;;;;;;;0.60;0.30;;;;;;;1.41;100.00;97765.44;5026041;28;20184;-45
2023/01/17 08:23:09;;;;;;;3.72;0.75;;;;;;;1.48;100.00;97760.72;5023316;28;20181;-44
2023/01/17 08:25:34;;;;;;;1.88;0.55;;;;;;;1.41;100.00;97772.50;5025367;28;20216;-44
2023/01/17 08:28:00;;;;;;;1.55;0.30;;;;;;;1.47;100.00;97784.56;5022850;28;20180;-46
2023/01/17 08:30:26;;;;;;;1.33;0.28;;;;;;;1.43;100.00;97794.38;5030514;28;20264;-48
2023/01/17 08:32:51;;;;;;;1.70;0.45;;;;;;;1.44;100.00;97793.44;5021030;28;20237;-44
2023/01/17 08:35:18;;;;;;;0.45;0.45;;;;;;;1.36;100.00;97807.03;5023767;28;20209;-44
2023/01/17 08:37:44;;;;;;;0.65;0.40;;;;;;;1.45;100.00;97808.34;5027173;28;20241;-46
2023/01/17 08:40:11;;;;;;;1.20;0.50;;;;;;;1.49;100.00;97820.47;5021509;28;20192;-45
2023/01/17 08:42:39;;;;;;;1.65;0.55;;;;;;;1.53;100.00;97819.38;5023505;28;20534;-46
2023/01/17 08:45:07;;;;;;;0.95;0.50;;;;;;;1.48;100.00;97813.47;5027501;28;20259;-48
2023/01/17 08:47:33;;;;;;;1.33;0.50;;;;;;;1.41;100.00;97833.19;5020081;28;20188;-48
2023/01/17 08:49:59;;;;;;;1.90;0.70;;;;;;;1.48;100.00;97849.56;5021664;28;20214;-46
2023/01/17 08:52:26;;;;;;;0.40;0.40;;;;;;;1.44;100.00;97849.72;5021230;28;20717;-43
2023/01/17 08:54:52;;;;;;;4.35;1.35;;;;;;;1.44;100.00;97859.41;5021613;28;20289;-46
2023/01/17 08:57:19;;;;;;;3.38;0.50;;;;;;;1.43;100.00;97871.75;5024868;28;20193;-42
2023/01/17 08:59:45;;;;;;;3.80;0.73;;;;;;;1.40;100.00;97876.28;5024870;28;20665;-47
2023/01/17 09:02:14;;;;;;;4.28;0.60;;;;;;;1.47;100.00;97882.16;5021496;28;20739;-48
2023/01/17 09:04:46;;;;;;;2.90;0.63;;;;;;;1.44;100.00;97867.31;5023650;28;20184;-45
2023/01/17 09:07:13;;;;;;;3.30;0.80;;;;;;;1.49;100.00;97878.50;5024920;28;20279;-45
2023/01/17 09:09:38;;;;;;;7.53;0.80;;;;;;;1.55;100.00;97865.03;5025611;28;20240;-48
2023/01/17 09:12:05;;;;;;;4.45;1.17;;;;;;;1.56;100.00;97872.00;5027232;28;20646;-46
2023/01/17 09:14:31;;;;;;;8.15;1.92;;;;;;;1.58;100.00;97874.56;5016550;28;20184;-46
2023/01/17 09:16:56;;;;;;;3.00;1.10;;;;;;;1.63;100.00;97875.19;5022191;28;20212;-46
2023/01/17 09:19:21;;;;;;;4.70;1.17;;;;;;;1.67;100.00;97879.38;5022889;28;20973;-45
2023/01/17 09:21:47;;;;;;;3.85;1.08;;;;;;;1.71;100.00;97885.38;5022247;28;20187;-48
2023/01/17 09:24:13;;;;;;;6.60;1.13;;;;;;;1.79;100.00;97899.03;5018959;28;20184;-46
2023/01/17 09:26:38;;;;;;;3.05;1.05;;;;;;;1.77;100.00;97892.97;5020754;28;20204;-48
2023/01/17 09:29:04;;;;;;;5.90;0.95;;;;;;;1.91;100.00;97897.56;5024433;28;20184;-47
2023/01/17 09:31:30;;;;;;;4.90;0.93;;;;;;;1.92;100.00;97891.34;5020692;28;20691;-46
2023/01/17 09:33:57;;;;;;;2.13;1.00;;;;;;;1.93;100.00;97903.63;5022577;28;20181;-46
2023/01/17 09:36:25;;;;;;;6.03;1.40;;;;;;;1.91;100.00;97916.91;5017911;28;20204;-46
2023/01/17 09:38:56;;;;;;;7.28;1.40;;;;;;;1.95;100.00;97904.41;5019449;28;20188;-46
2023/01/17 09:41:32;;;;;;;10.75;1.35;;;;;;;1.95;100.00;97907.91;5019342;28;20231;-46
2023/01/17 09:44:19;;;;;;;4.25;0.82;;;;;;;2.02;100.00;97916.38;5020233;28;20275;-49
2023/01/17 09:46:47;;;;;;;3.58;1.50;;;;;;;1.96;100.00;97916.66;5019964;28;20286;-46
2023/01/17 09:49:19;;;;;;;11.93;2.85;;;;;;;1.85;100.00;97925.13;5020162;28;20184;-48
2023/01/17 09:51:45;;;;;;;5.85;1.02;;;;;;;1.84;100.00;97918.16;5021856;28;20302;-48
2023/01/17 09:54:34;;;;;;;7.90;1.30;;;;;;;1.87;100.00;97922.41;5019424;28;20202;-46
2023/01/17 09:57:21;;;;;;;10.77;1.63;;;;;;;1.89;100.00;97923.19;5018869;28;20295;-47
2023/01/17 10:00:01;;;;;;;9.90;2.17;;;;;;;1.94;100.00;97951.06;5026715;28;20199;-48
2023/01/17 10:03:06;;;;;;;6.68;1.10;;;;;;;2.00;100.00;97949.91;5014882;28;20214;-45
2023/01/17 10:05:56;;;;;;;9.07;1.02;;;;;;;2.03;100.00;97945.34;5012340;28;20225;-49
2023/01/17 10:08:30;;;;;;;3.72;1.00;;;;;;;2.10;100.00;97947.66;5014493;28;20212;-47
2023/01/17 10:11:34;;;;;;;5.85;1.15;;;;;;;2.13;100.00;97952.78;5027936;28;20315;-47
2023/01/17 10:14:37;;;;;;;6.35;1.05;;;;;;;2.15;100.00;97950.94;5010104;28;20198;-48
2023/01/17 10:17:24;;;;;;;6.78;0.82;;;;;;;2.24;100.00;97956.59;5024398;28;20278;-44
2023/01/17 10:19:56;;;;;;;6.18;1.10;;;;;;;2.34;100.00;97964.91;5022099;28;20283;-46
2023/01/17 10:22:37;;;;;;;3.30;0.70;;;;;;;2.35;100.00;97968.41;5023226;28;20276;-45
2023/01/17 10:25:26;;;;;;;2.95;0.80;;;;;;;2.35;100.00;97963.97;5014126;28;20239;-46
2023/01/17 10:28:15;;;;;;;3.63;0.80;;;;;;;2.44;100.00;97970.56;5017423;28;20321;-48
2023/01/17 10:30:49;;;;;;;4.82;0.95;;;;;;;2.56;100.00;97967.31;5019026;28;20185;-46
2023/01/17 10:33:18;;;;;;;6.13;0.90;;;;;;;2.64;100.00;97958.97;5018766;28;20223;-45
2023/01/17 10:35:57;;;;;;;3.55;0.65;;;;;;;2.75;100.00;97967.19;5019985;28;20223;-46
2023/01/17 10:38:31;;;;;;;5.85;0.88;;;;;;;2.77;100.00;97960.03;5021177;28;20204;-46
2023/01/17 10:41:21;;;;;;;9.45;1.00;;;;;;;2.82;100.00;97962.44;5017957;28;20176;-45
2023/01/17 10:44:00;;;;;;;3.33;0.90;;;;;;;2.96;100.00;97962.56;5026851;28;20271;-44
2023/01/17 10:46:41;;;;;;;3.95;1.20;;;;;;;3.08;100.00;97958.41;5021789;28;20296;-46
2023/01/17 10:49:23;;;;;;;7.07;1.20;;;;;;;3.08;100.00;97964.56;5016933;28;20235;-45
2023/01/17 10:52:01;;;;;;;4.50;1.38;;;;;;;3.26;100.00;97962.72;5015924;28;20556;-45
2023/01/17 10:54:38;;;;;;;4.72;0.98;;;;;;;3.53;100.00;97958.63;5019004;28;20180;-47
2023/01/17 10:57:04;;;;;;;4.32;1.10;;;;;;;3.60;100.00;97958.19;5017364;28;20287;-47
2023/01/17 10:59:32;;;;;;;5.68;1.05;;;;;;;3.57;100.00;97947.78;5020048;28;20191;-46
2023/01/17 11:01:59;;;;;;;8.48;1.17;;;;;;;3.60;100.00;97965.28;5018845;28;20172;-46
2023/01/17 11:04:24;;;;;;;9.80;0.90;;;;;;;3.56;100.00;97964.56;5019268;28;20551;-45
2023/01/17 11:07:19;;;;;;;8.55;1.20;;;;;;;3.69;100.00;97965.59;5017477;28;20207;-45
2023/01/17 11:09:47;;;;;;;6.47;1.00;;;;;;;3.79;100.00;97962.44;5003809;28;20264;-49
2023/01/17 11:12:42;;;;;;;11.88;1.85;;;;;;;3.99;100.00;97961.31;5016404;28;20210;-47
2023/01/17 11:15:08;;;;;;;4.95;0.95;;;;;;;3.99;100.00;97948.06;5018691;28;20256;-47
2023/01/17 11:17:44;;;;;;;4.82;0.90;;;;;;;4.05;100.00;97937.97;5017843;28;20235;-47
2023/01/17 11:20:31;;;;;;;6.97;1.20;;;;;;;4.11;100.00;97945.56;5021109;28;20272;-47
2023/01/17 11:23:30;;;;;;;6.43;1.23;;;;;;;4.08;100.00;97952.81;5015640;28;20263;-45
2023/01/17 11:26:06;;;;;;;7.00;1.17;;;;;;;4.15;100.00;97954.16;5013118;28;20225;-46
2023/01/17 11:28:37;;;;;;;5.03;0.95;;;;;;;4.16;100.00;97944.44;5015823;28;20631;-48
2023/01/17 11:31:08;;;;;;;6.03;1.23;;;;;;;4.13;100.00;97941.03;5025063;28;20184;-47
2023/01/17 11:33:44;;;;;;;3.53;1.00;;;;;;;4.07;100.00;97946.69;5019464;28;20188;-46
2023/01/17 11:36:26;;;;;;;5.82;1.35;;;;;;;4.22;100.00;97944.06;5019869;28;20208;-48
2023/01/17 11:39:03;;;;;;;9.43;1.05;;;;;;;4.33;100.00;97950.44;5020139;28;20279;-46
2023/01/17 11:41:37;;;;;;;9.18;1.17;;;;;;;4.33;100.00;97945.16;5017444;28;20183;-45
2023/01/17 11:44:30;;;;;;;6.15;0.80;;;;;;;4.34;100.00;97946.84;5017566;28;20228;-48
2023/01/17 11:47:10;;;;;;;4.68;0.90;;;;;;;4.36;100.00;97945.91;5014480;28;20255;-46
2023/01/17 11:49:37;;;;;;;6.00;0.98;;;;;;;4.14;99.78;97944.53;5022293;28;20194;-49
2023/01/17 11:52:24;;;;;;;4.05;0.80;;;;;;;4.11;98.22;97940.25;5020695;28;20598;-46
2023/01/17 11:54:52;;;;;;;6.68;1.20;;;;;;;4.03;97.37;97931.91;5015676;28;20176;-46
2023/01/17 11:57:32;;;;;;;7.38;1.20;;;;;;;4.08;96.46;97945.72;5013782;28;20192;-48
2023/01/17 12:00:06;;;;;;;7.40;1.13;;;;;;;4.22;95.37;97933.47;5016099;28;20598;-47
2023/01/17 12:03:01;;;;;;;5.95;1.20;;;;;;;4.54;94.36;97937.69;5018945;28;20171;-47
2023/01/17 12:05:54;;;;;;;8.95;1.25;;;;;;;4.74;94.30;97938.28;5017667;28;20218;-46
2023/01/17 12:08:29;;;;;;;3.22;1.13;;;;;;;4.17;93.34;97957.56;5012421;28;20181;-48
2023/01/17 12:13:59;;;;;;;5.22;1.10;;;;;;;3.79;93.29;97947.41;5021368;28;20661;-46
2023/01/17 12:14:42;;;;;;;3.63;0.70;;;;;;;3.63;92.93;97965.09;4999411;28;20223;-45
2023/01/17 12:17:39;;;;;;;4.57;0.70;;;;;;;3.49;92.08;97952.63;5020504;28;20191;-46
2023/01/17 12:20:23;;;;;;;6.57;1.08;;;;;;;3.42;91.88;97967.16;5018718;28;20273;-47
2023/01/17 12:23:24;;;;;;;3.03;0.77;;;;;;;3.69;92.51;97976.19;5018978;28;20539;-46
2023/01/17 12:26:01;;;;;;;2.28;0.60;;;;;;;3.76;91.57;97981.16;4996026;28;20247;-48
2023/01/17 12:28:51;;;;;;;0.88;0.60;;;;;;;3.68;90.55;97969.19;5015936;28;20275;-45
2023/01/17 12:32:00;;;;;;;5.32;0.85;;;;;;;3.52;90.10;97968.38;5018848;28;20204;-47
2023/01/17 12:34:31;;;;;;;5.45;0.80;;;;;;;3.40;89.95;97975.16;4988927;28;20933;-46
2023/01/17 12:37:13;;;;;;;3.40;1.02;;;;;;;3.28;89.50;97982.00;5014892;28;20696;-46
2023/01/17 12:39:45;;;;;;;3.88;0.60;;;;;;;3.45;89.51;97990.78;5023065;28;20192;-46
2023/01/17 12:42:17;;;;;;;6.97;0.70;;;;;;;3.37;89.06;97993.00;5023733;28;20173;-46
2023/01/17 12:44:50;;;;;;;2.42;0.47;;;;;;;3.40;89.32;98006.94;5010798;28;20180;-45
2023/01/17 12:47:18;;;;;;;3.92;0.88;;;;;;;3.44;89.01;97997.03;5015534;28;20199;-46
2023/01/17 12:49:47;;;;;;;4.50;1.00;;;;;;;3.44;89.65;98002.34;5022347;28;20249;-46
2023/01/17 12:52:21;;;;;;;3.05;1.10;;;;;;;3.37;89.91;98007.09;5018247;28;20215;-45
2023/01/17 12:54:54;;;;;;;4.90;0.95;;;;;;;3.14;89.60;98008.34;5013926;28;20184;-46
2023/01/17 12:57:28;;;;;;;4.70;1.08;;;;;;;3.09;89.58;98026.25;5020782;28;20184;-46
2023/01/17 13:00:11;;;;;;;3.75;0.70;;;;;;;2.98;90.16;98028.59;5022594;28;20168;-47
2023/01/17 13:02:56;;;;;;;5.60;0.80;;;;;;;3.06;92.06;98040.50;5020762;28;20176;-45
2023/01/17 13:05:40;;;;;;;4.35;0.82;;;;;;;2.84;92.09;98046.06;5027201;28;20258;-44
2023/01/17 13:08:33;;;;;;;4.68;0.95;;;;;;;2.81;92.60;98064.69;5017999;28;20216;-45
2023/01/17 13:11:27;;;;;;;5.05;1.10;;;;;;;2.76;93.89;98085.25;5023229;28;20191;-46
2023/01/17 13:13:56;;;;;;;2.58;0.50;;;;;;;2.65;94.28;98083.13;4991591;28;20627;-46